ACT        NSW        VIC        QLD        SA        WA        TAS        NT        INFO        CALC            by VK5ZD

  Atmospheric Gas Attenuation - ITU Rec 676-11   --------------- db/100km ---------------
SA Stations Date Time Temp RH % AH g/m3 Dew Point Wind Direction Speed kph Gust kph Barometer mB Rainfall Since 9am 24GHz 47GHz 76GHz 122GHz 134GHz 241GHz
Adelaide (West Terrace / Ngayirdapira) 23 08:00 11.2 52 5.27 1.7 13 20 1022.8 0 12.6 21.8 28.5 74.1 59.5 201.6
Adelaide Airport 23 08:00 10.1 56 5.3 1.7 20 24 1022.7 0.2 12.7 22.1 29.0 75.4 60.7 205.7
Clare 23 08:00 3.4 86 5.26 1.3 2 6 1024.1 0 12.9 23.8 31.4 81.8 65.7 222.1
Edinburgh 23 08:00 8.8 64 5.57 2.4 19 20 1023.2 0 13.3 22.8 30.5 79.4 65.1 221.0
Kadina 23 08:00 9.7 76 7.01 5.7 24 30 1022.9 0 16.4 24.8 35.8 93.5 82.9 283.5
Kuitpo 23 08:00 10.7 45 4.42 -0.7 22 26 1020.9 0 10.8 20.6 25.5 66.2 49.6 166.9
Mount Crawford 23 08:00 8.1 53 4.41 -0.9 32 37 1022.3 0 10.9 21.2 26.4 68.4 51.2 172.1
Mount Lofty 23 08:00 8.1 51 4.25 -1.4 20 37 1013.1 0 10.5 20.6 25.5 66.1 48.9 164.0
Noarlunga 23 08:00 12.1 53 5.68 2.8 20 33 1013.1 0 13.4 21.8 29.3 76.4 63.2 215.0
Nuriootpa 23 08:00 6.7 66 5.02 0.8 13 13 1023.7 0 12.2 22.5 29.2 75.9 59.9 202.2
Parafield 23 08:00 10.7 55 5.4 2 20 24 1022.9 0 12.9 22.1 29.2 75.9 61.5 208.5
Roseworthy 23 08:00 9 66 5.82 3 20 22 1022.8 0 13.8 23.1 31.4 81.8 68.1 231.5
Snowtown 23 08:00 6.7 72 5.47 2 26 37 1023.7 0 13.2 23.2 30.9 80.6 65.6 222.5
---
Cape Borda 23 08:00 12.8 73 8.18 8.1 24 30 1019.1 0 18.7 25.7 38.9 101.9 94.6 324.9
Cape Jaffa 23 08:00 10.7 78 7.66 7 24 26 1020 0 17.7 25.5 37.8 99.0 90.2 309.3
Cape Willoughby 23 08:00 12.4 74 8.09 7.9 54 65 1019.6 0 18.6 25.7 38.7 101.5 93.9 322.5
Ceduna 23 08:00 11 45 4.51 -0.5 28 35 1019.8 0 11.0 20.6 25.7 66.7 50.5 169.8
Cleve Airport 23 08:00 13.8 34 4.05 -1.8 35 48 1020.6 0 9.9 19.4 23.4 60.4 43.6 146.1
Coober Pedy Airport 23 08:00 7.6 54 4.35 -1.1 20 24 1024.8 0 10.8 21.3 26.4 68.4 50.9 171.0
Coonawarra 23 08:00 10 71 6.67 5 19 26 1021.1 0.8 15.6 24.2 34.2 89.4 78.0 266.4
Cultana (Defence) 23 08:00 7.5 64 5.13 1.1 24 30 1013.1 0 12.4 22.1 28.9 75.3 60.0 203.2
Cummins Airport 23 08:00 6.5 67 5.03 0.8 15 20 1020.4 0 12.2 22.5 29.2 75.9 60.0 202.6
Edithburgh 23 08:00 8.1 72 5.99 3.4 13 19 1021.1 0 14.2 23.6 32.3 84.3 71.0 241.5
Ernabella/Pukatja 23 08:00 9.6 45 4.12 -1.7 17 19 1023.4 0 10.2 20.5 24.9 64.4 46.9 157.1
Hindmarsh Island 23 08:00 8.4 72 6.11 3.7 20 20 1021 0 14.5 23.7 32.7 85.3 72.3 246.1
Keith West 23 08:00 7.9 71 5.83 3 17 22 1022.3 0 13.9 23.4 31.8 83.0 69.2 235.1
Kingscote 23 08:00 12.5 69 7.59 7 15 20 1019.7 0 17.5 24.9 36.7 96.0 87.2 299.1
Lameroo Aws 23 08:00 5.1 81 5.54 2.1 15 20 1023.8 0 13.4 23.7 31.9 83.0 67.9 230.3
Leigh Creek 23 08:00 6.5 70 5.25 1.4 9 9 1027.1 0 12.7 23.0 30.3 78.8 63.1 213.7
Loxton 23 08:00 4.4 90 5.88 2.9 6 11 1024.8 0 14.2 24.5 33.6 87.5 73.2 248.7
Marree Airport 23 08:00 5.1 76 5.2 1.2 11 11 1027.3 0 12.7 23.3 30.6 79.7 63.6 215.2
Minlaton Airport 23 08:00 8.2 83 6.95 5.5 26 30 1021.2 0 16.3 25.1 36.1 94.5 83.6 285.7
Minnipa Rs 23 08:00 10.2 46 4.38 -0.9 22 26 1021.5 0 10.7 20.6 25.6 66.3 49.5 166.4
Moomba Airport 23 08:00 9.1 82 7.28 6.2 9 9 1027.4 0 17.0 25.6 37.3 97.6 87.5 299.5
Mount Gambier 23 08:00 9.2 78 6.97 5.6 1020.2 0.8 16.3 24.8 35.7 93.4 82.7 282.8
Naracoorte 23 08:00 9.8 68 6.31 4.2 20 28 1021.5 0 14.9 23.7 32.9 85.9 73.6 250.8
Nullarbor 23 08:00 4.1 45 2.88 -6.7 15 17 1018.5 0 7.7 19.7 21.9 56.4 34.9 114.1
Oodnadatta 23 08:00 7.5 66 5.29 1.6 7 11 1025.9 0 12.8 22.8 30.0 78.1 62.8 212.6
Padthaway 23 08:00 10.3 58 5.56 2.4 20 26 1013.1 0 13.2 22.1 29.5 77.0 63.2 214.6
Pallamana 23 08:00 4.6 92 6.09 3.4 13 13 1022.7 0 14.6 24.7 34.3 89.4 75.7 257.6
Parawa West 23 08:00 8.3 81 6.83 5.2 15 19 1020.8 0 16.0 24.9 35.6 93.0 81.8 279.6
Parndana 23 08:00 11.4 69 7.08 5.9 20 24 1013.1 0.4 16.4 24.1 34.9 91.3 81.3 278.4
Point Avoid 23 08:00 10.2 63 6 3.5 22 32 1018.4 0 14.2 23.0 31.4 82.0 69.1 235.1
Port Augusta 23 08:00 5.2 85 5.86 2.9 13 17 1025 0 14.1 24.3 33.2 86.4 72.2 245.3
Port Lincoln Airport 23 08:00 12.1 41 4.4 -0.7 35 41 1018.8 0 10.7 20.2 25.0 64.7 48.5 163.0
Port Pirie Airport Aws 23 08:00 10.6 68 6.64 4.9 20 26 1023.9 0 15.5 24.0 34.0 88.7 77.2 263.7
Renmark Airport 23 08:00 6.9 71 5.47 2 15 19 1024.7 0 13.2 23.2 30.9 80.5 65.5 222.1
Robe Airport 23 08:00 10.2 73 6.95 5.7 20 28 1019.8 0 16.2 24.5 35.2 92.0 81.4 278.2
Roxby Downs 23 08:00 8.7 69 5.97 3.3 15 17 1025.6 0 14.2 23.6 32.2 83.9 70.5 239.7
Stenhouse Bay 23 08:00 8.5 91 7.77 7.1 17 20 1019.8 0.2 18.1 26.3 39.3 103.1 94.3 323.4
Strathalbyn 23 08:00 8.4 67 5.69 2.6 7 11 1020.9 0 13.6 23.0 31.0 80.9 66.8 227.1
Tarcoola 23 08:00 6.4 65 4.85 0.3 13 13 1023.8 0 11.9 22.3 28.7 74.4 57.9 195.4
Whyalla 23 08:00 6.7 70 5.32 1.6 15 17 1023.7 0 12.9 23.0 30.4 79.0 63.7 215.7
Woomera 23 08:00 8 65 5.38 1.8 20 24 1025.4 0 12.9 22.8 30.2 78.5 63.5 215.2
Wudinna Airport 23 08:00 11.4 42 4.31 -1 26 35 1020.8 0 10.6 20.3 24.9 64.6 47.9 161.0
Yunta 23 08:00 8.8 51 4.44 -0.8 19 24 1025.4 0 10.9 21.2 26.4 68.3 51.3 172.4

Last Refresh: 23-Jul-2024 08:04:20

Bureau of Meteorology